createdAt,value
2019-06-21T00:00:24.906Z,0.00
2019-06-21T00:01:25.343Z,0.00
2019-06-21T00:02:25.803Z,0.00
2019-06-21T00:03:26.247Z,0.00
2019-06-21T00:04:26.662Z,0.00
2019-06-21T00:05:27.145Z,0.00
2019-06-21T00:06:27.540Z,0.00
2019-06-21T00:07:28.862Z,0.00
2019-06-21T00:08:28.443Z,0.00
2019-06-21T00:09:28.858Z,0.00
2019-06-21T00:10:29.289Z,0.00
2019-06-21T00:11:29.740Z,0.00
2019-06-21T00:12:30.180Z,0.00
2019-06-21T00:13:30.612Z,0.00
2019-06-21T00:14:31.067Z,0.00
2019-06-21T00:15:31.498Z,0.00
2019-06-21T00:16:31.931Z,0.00
2019-06-21T00:17:32.373Z,0.00
2019-06-21T00:18:32.828Z,0.00
2019-06-21T00:19:33.270Z,0.00
2019-06-21T00:20:33.693Z,0.00
2019-06-21T00:21:34.142Z,0.00
2019-06-21T00:22:34.558Z,0.00
2019-06-21T00:23:35.016Z,0.00
2019-06-21T00:24:35.449Z,0.00
2019-06-21T00:25:35.890Z,0.00
2019-06-21T00:26:36.339Z,0.00
2019-06-21T00:27:36.786Z,0.00
2019-06-21T00:28:37.238Z,0.00
2019-06-21T00:29:37.655Z,0.00
2019-06-21T00:30:38.081Z,0.00
2019-06-21T00:31:38.523Z,0.00
2019-06-21T00:32:38.964Z,0.00
2019-06-21T00:33:39.456Z,0.00
2019-06-21T00:34:39.832Z,0.00
2019-06-21T00:35:40.326Z,0.00
2019-06-21T00:36:40.740Z,0.00
2019-06-21T00:37:44.204Z,0.00
2019-06-21T00:38:41.599Z,0.00
2019-06-21T00:39:42.030Z,0.00
2019-06-21T00:40:42.474Z,0.00
2019-06-21T00:41:42.947Z,0.00
2019-06-21T00:42:43.352Z,0.00
2019-06-21T00:43:43.805Z,0.00
2019-06-21T00:44:44.251Z,0.00
2019-06-21T00:45:44.673Z,0.00
2019-06-21T00:46:45.133Z,0.00
2019-06-21T00:47:45.581Z,0.00
2019-06-21T00:48:46.014Z,0.00
2019-06-21T00:49:46.454Z,0.00
2019-06-21T00:50:46.904Z,0.00
2019-06-21T00:51:47.308Z,0.00
2019-06-21T00:52:47.751Z,0.00
2019-06-21T00:53:48.177Z,0.00
2019-06-21T00:54:48.609Z,0.00
2019-06-21T00:55:49.063Z,0.00
2019-06-21T00:56:49.510Z,0.00
2019-06-21T00:57:49.932Z,0.00
2019-06-21T00:58:50.414Z,0.00
2019-06-21T00:59:50.805Z,0.00
2019-06-21T01:00:51.256Z,0.00
2019-06-21T01:01:51.698Z,0.00
2019-06-21T01:02:52.136Z,0.00
2019-06-21T01:03:52.583Z,0.00
2019-06-21T01:04:53.008Z,0.00
2019-06-21T01:05:53.437Z,0.00
2019-06-21T01:06:53.876Z,0.00
2019-06-21T01:07:59.783Z,0.00
2019-06-21T01:08:54.775Z,0.00
2019-06-21T01:09:55.287Z,0.00
2019-06-21T01:10:55.633Z,0.00
2019-06-21T01:11:56.081Z,0.00
2019-06-21T01:12:56.530Z,0.00
2019-06-21T01:13:56.945Z,0.00
2019-06-21T01:14:57.413Z,0.00
2019-06-21T01:15:57.837Z,0.00
2019-06-21T01:16:58.266Z,0.00
2019-06-21T01:17:58.713Z,0.00
2019-06-21T01:18:59.142Z,0.00
2019-06-21T01:19:59.575Z,0.00
2019-06-21T01:21:00.031Z,0.00
2019-06-21T01:22:00.457Z,0.00
2019-06-21T01:23:00.933Z,0.00
2019-06-21T01:24:01.428Z,0.00
2019-06-21T01:25:02.077Z,0.00
2019-06-21T01:26:02.407Z,0.00
2019-06-21T01:27:02.654Z,0.00
2019-06-21T01:28:03.091Z,0.00
2019-06-21T01:29:03.528Z,0.00
2019-06-21T01:30:03.998Z,0.00
2019-06-21T01:31:04.411Z,0.00
2019-06-21T01:32:04.845Z,0.00
2019-06-21T01:33:05.280Z,0.00
2019-06-21T01:34:05.734Z,0.00
2019-06-21T01:35:06.151Z,0.00
2019-06-21T01:36:06.597Z,0.00
2019-06-21T01:37:07.052Z,0.00
2019-06-21T01:38:16.473Z,0.00
2019-06-21T01:39:07.932Z,0.00
2019-06-21T01:40:08.351Z,0.00
2019-06-21T01:41:08.785Z,0.00
2019-06-21T01:42:09.252Z,0.00
2019-06-21T01:43:09.675Z,0.00
2019-06-21T01:44:10.128Z,0.00
2019-06-21T01:45:10.638Z,0.00
2019-06-21T01:46:11.018Z,0.00
2019-06-21T01:47:11.434Z,0.00
2019-06-21T01:48:11.882Z,0.00
2019-06-21T01:49:12.315Z,0.00
2019-06-21T01:50:12.739Z,0.00
2019-06-21T01:51:13.196Z,0.00
2019-06-21T01:52:13.625Z,0.00
2019-06-21T01:53:14.053Z,0.00
2019-06-21T01:54:14.496Z,0.00
2019-06-21T01:55:14.950Z,0.00
2019-06-21T01:56:15.370Z,0.00
2019-06-21T01:57:15.797Z,0.00
2019-06-21T01:58:16.234Z,0.00
2019-06-21T01:59:16.678Z,4.00
2019-06-21T02:00:17.107Z,4.00
2019-06-21T02:01:17.551Z,4.00
2019-06-21T02:02:17.999Z,4.00
2019-06-21T02:03:18.431Z,0.00
2019-06-21T02:04:18.867Z,0.00
2019-06-21T02:05:19.365Z,4.00
2019-06-21T02:06:19.739Z,4.00
2019-06-21T02:07:20.251Z,4.00
2019-06-21T02:08:32.864Z,4.00
2019-06-21T02:09:21.051Z,4.00
2019-06-21T02:10:21.494Z,8.00
2019-06-21T02:11:22.014Z,4.00
2019-06-21T02:12:22.362Z,8.00
2019-06-21T02:13:22.831Z,8.00
2019-06-21T02:14:23.248Z,12.00
2019-06-21T02:15:23.698Z,12.00
2019-06-21T02:16:24.133Z,12.00
2019-06-21T02:17:24.572Z,16.00
2019-06-21T02:18:24.992Z,16.00
2019-06-21T02:19:25.427Z,20.00
2019-06-21T02:20:25.903Z,20.00
2019-06-21T02:21:26.317Z,20.00
2019-06-21T02:22:26.820Z,24.00
2019-06-21T02:23:27.239Z,24.00
2019-06-21T02:24:27.638Z,28.00
2019-06-21T02:25:28.067Z,32.00
2019-06-21T02:26:28.505Z,32.00
2019-06-21T02:27:28.961Z,36.00
2019-06-21T02:28:29.375Z,40.00
2019-06-21T02:29:29.819Z,44.00
2019-06-21T02:30:30.255Z,44.00
2019-06-21T02:31:30.689Z,52.00
2019-06-21T02:32:31.140Z,56.00
2019-06-21T02:33:31.560Z,64.00
2019-06-21T02:34:32.000Z,72.00
2019-06-21T02:35:32.460Z,84.00
2019-06-21T02:36:32.878Z,88.00
2019-06-21T02:37:33.334Z,96.00
2019-06-21T02:38:53.008Z,100.00
2019-06-21T02:39:34.191Z,108.00
2019-06-21T02:40:34.651Z,120.00
2019-06-21T02:41:35.074Z,128.00
2019-06-21T02:42:35.524Z,136.00
2019-06-21T02:43:36.002Z,144.00
2019-06-21T02:44:36.396Z,156.00
2019-06-21T02:45:36.834Z,164.00
2019-06-21T02:46:37.296Z,180.00
2019-06-21T02:47:37.703Z,196.00
2019-06-21T02:48:38.152Z,212.00
2019-06-21T02:49:38.606Z,228.00
2019-06-21T02:50:39.042Z,244.00
2019-06-21T02:51:39.500Z,260.00
2019-06-21T02:52:39.951Z,276.00
2019-06-21T02:53:40.355Z,296.00
2019-06-21T02:54:40.792Z,312.00
2019-06-21T02:55:41.318Z,332.00
2019-06-21T02:56:41.659Z,352.00
2019-06-21T02:57:42.123Z,368.00
2019-06-21T02:58:42.525Z,392.00
2019-06-21T02:59:42.958Z,408.00
2019-06-21T03:00:43.430Z,424.00
2019-06-21T03:01:43.845Z,444.00
2019-06-21T03:02:44.282Z,468.00
2019-06-21T03:03:44.734Z,492.00
2019-06-21T03:04:45.152Z,520.00
2019-06-21T03:05:45.590Z,540.00
2019-06-21T03:06:46.048Z,564.00
2019-06-21T03:07:46.489Z,588.00
2019-06-21T03:08:46.924Z,612.00
2019-06-21T03:09:47.343Z,632.00
2019-06-21T03:10:47.777Z,652.00
2019-06-21T03:14:54.439Z,740.00
2019-06-21T03:17:25.349Z,796.00
2019-06-21T03:18:09.620Z,824.00
2019-06-21T03:20:07.407Z,896.00
2019-06-21T03:21:04.586Z,928.00
2019-06-21T03:22:05.041Z,952.00
2019-06-21T03:23:05.492Z,968.00
2019-06-21T03:24:05.914Z,980.00
2019-06-21T03:25:08.752Z,992.00
2019-06-21T03:26:06.793Z,1008.00
2019-06-21T03:27:07.227Z,1048.00
2019-06-21T03:28:07.687Z,1104.00
2019-06-21T03:29:08.101Z,1152.00
2019-06-21T03:30:08.656Z,1196.00
2019-06-21T03:31:09.005Z,1232.00
2019-06-21T03:32:09.424Z,1260.00
2019-06-21T03:33:10.067Z,1280.00
2019-06-21T03:34:10.371Z,1300.00
2019-06-21T03:35:10.817Z,1316.00
2019-06-21T03:36:11.187Z,1344.00
2019-06-21T03:37:11.617Z,1360.00
2019-06-21T03:38:12.056Z,1356.00
2019-06-21T03:39:12.511Z,1360.00
2019-06-21T03:40:12.940Z,1376.00
2019-06-21T03:41:13.391Z,1396.00
2019-06-21T03:42:13.816Z,1436.00
2019-06-21T03:43:14.272Z,1468.00
2019-06-21T03:44:14.694Z,1496.00
2019-06-21T03:45:15.122Z,1516.00
2019-06-21T03:46:15.565Z,1540.00
2019-06-21T03:47:16.002Z,1564.00
2019-06-21T03:48:16.452Z,1584.00
2019-06-21T03:49:16.902Z,1612.00
2019-06-21T03:50:17.340Z,1644.00
2019-06-21T03:51:17.770Z,1664.00
2019-06-21T03:52:18.241Z,1700.00
2019-06-21T03:53:18.647Z,1732.00
2019-06-21T03:54:19.099Z,1760.00
2019-06-21T03:55:19.541Z,1788.00
2019-06-21T03:56:19.956Z,1820.00
2019-06-21T03:57:20.409Z,1864.00
2019-06-21T03:58:20.843Z,1904.00
2019-06-21T03:59:21.284Z,1944.00
2019-06-21T04:00:21.703Z,1980.00
2019-06-21T04:01:22.157Z,2008.00
2019-06-21T04:02:22.594Z,2036.00
2019-06-21T04:03:23.027Z,2068.00
2019-06-21T04:04:23.459Z,2100.00
2019-06-21T04:05:23.910Z,2120.00
2019-06-21T04:06:24.375Z,2128.00
2019-06-21T04:07:24.797Z,2144.00
2019-06-21T04:08:25.216Z,2152.00
2019-06-21T04:09:25.676Z,2180.00
2019-06-21T04:10:26.146Z,2200.00
2019-06-21T04:11:26.535Z,2236.00
2019-06-21T04:12:26.972Z,2300.00
2019-06-21T04:13:27.417Z,2380.00
2019-06-21T04:14:27.847Z,2492.00
2019-06-21T04:15:28.292Z,2548.00
2019-06-21T04:16:28.729Z,2736.00
2019-06-21T04:17:29.172Z,2904.00
2019-06-21T04:18:29.603Z,3156.00
2019-06-21T04:19:30.043Z,3568.00
2019-06-21T04:20:30.483Z,3980.00
2019-06-21T04:21:30.923Z,4356.00
2019-06-21T04:22:31.368Z,4572.00
2019-06-21T04:23:31.810Z,4804.00
2019-06-21T04:24:32.238Z,4920.00
2019-06-21T04:25:32.673Z,4896.00
2019-06-21T04:26:33.115Z,4744.00
2019-06-21T04:27:33.552Z,4600.00
2019-06-21T04:28:33.989Z,4408.00
2019-06-21T04:29:34.430Z,4212.00
2019-06-21T04:30:34.874Z,4168.00
2019-06-21T04:31:35.350Z,4228.00
2019-06-21T04:32:35.751Z,4208.00
2019-06-21T04:33:36.190Z,4160.00
2019-06-21T04:34:36.634Z,4496.00
2019-06-21T04:35:37.068Z,4836.00
2019-06-21T04:36:37.548Z,5112.00
2019-06-21T04:37:37.959Z,5288.00
2019-06-21T04:38:38.383Z,5244.00
2019-06-21T04:39:38.825Z,5072.00
2019-06-21T04:40:39.267Z,4932.00
2019-06-21T04:41:39.701Z,4876.00
2019-06-21T04:42:40.154Z,4760.00
2019-06-21T04:43:40.592Z,4756.00
2019-06-21T04:44:41.032Z,4996.00
2019-06-21T04:45:41.458Z,5048.00
2019-06-21T04:46:41.924Z,4972.00
2019-06-21T04:47:42.339Z,5032.00
2019-06-21T04:48:42.779Z,5116.00
2019-06-21T04:49:43.226Z,5400.00
2019-06-21T04:50:43.659Z,5492.00
2019-06-21T04:51:44.098Z,5420.00
2019-06-21T04:52:44.558Z,5420.00
2019-06-21T04:53:44.986Z,5204.00
2019-06-21T04:54:45.425Z,5032.00
2019-06-21T04:55:45.860Z,4528.00
2019-06-21T04:56:46.300Z,4296.00
2019-06-21T04:57:46.746Z,4608.00
2019-06-21T04:58:47.185Z,5432.00
2019-06-21T04:59:47.628Z,6356.00
2019-06-21T05:00:48.064Z,7020.00
2019-06-21T05:01:48.501Z,7172.00
2019-06-21T05:02:48.946Z,7380.00
2019-06-21T05:03:49.377Z,7196.00
2019-06-21T05:04:49.836Z,6592.00
2019-06-21T05:05:50.264Z,6600.00
2019-06-21T05:06:50.708Z,6224.00
2019-06-21T05:07:51.145Z,5956.00
2019-06-21T05:08:51.582Z,5804.00
2019-06-21T05:09:52.083Z,5524.00
2019-06-21T05:10:52.469Z,5060.00
2019-06-21T05:11:52.905Z,4724.00
2019-06-21T05:12:53.343Z,4928.00
2019-06-21T05:13:53.790Z,5404.00
2019-06-21T05:14:54.228Z,5692.00
2019-06-21T05:15:54.671Z,5928.00
2019-06-21T05:16:55.110Z,6340.00
2019-06-21T05:17:55.549Z,6728.00
2019-06-21T05:18:55.987Z,6516.00
2019-06-21T05:19:56.435Z,5836.00
2019-06-21T05:20:56.871Z,5304.00
2019-06-21T05:21:57.312Z,4912.00
2019-06-21T05:22:57.754Z,4776.00
2019-06-21T05:23:58.194Z,4756.00
2019-06-21T05:24:58.630Z,4752.00
2019-06-21T05:25:59.079Z,4976.00
2019-06-21T05:26:59.608Z,5772.00
2019-06-21T05:27:59.954Z,6300.00
2019-06-21T05:29:00.393Z,6460.00
2019-06-21T05:30:00.836Z,6684.00
2019-06-21T05:31:01.278Z,6940.00
2019-06-21T05:32:01.790Z,7236.00
2019-06-21T05:33:02.163Z,7684.00
2019-06-21T05:34:02.594Z,8224.00
2019-06-21T05:35:03.037Z,8352.00
2019-06-21T05:36:03.482Z,8464.00
2019-06-21T05:37:03.923Z,8272.00
2019-06-21T05:38:04.361Z,7548.00
2019-06-21T05:39:04.801Z,8248.00
2019-06-21T05:40:05.243Z,8304.00
2019-06-21T05:41:05.680Z,8876.00
2019-06-21T05:42:06.134Z,10276.00
2019-06-21T05:43:06.607Z,12728.00
2019-06-21T05:44:07.010Z,15484.00
2019-06-21T05:46:40.611Z,17792.00
2019-06-21T05:47:41.083Z,16768.00
2019-06-21T05:49:35.629Z,13616.00
2019-06-21T05:50:36.054Z,11364.00
2019-06-21T05:52:30.639Z,9716.00
2019-06-21T05:53:31.087Z,8952.00
2019-06-21T05:54:31.560Z,8640.00
2019-06-21T05:55:31.974Z,8412.00
2019-06-21T05:56:32.413Z,8252.00
2019-06-21T05:57:32.857Z,8188.00
2019-06-21T05:58:33.293Z,8060.00
2019-06-21T05:59:33.759Z,7864.00
2019-06-21T06:00:34.191Z,7792.00
2019-06-21T06:01:34.632Z,7700.00
2019-06-21T06:02:35.085Z,7792.00
2019-06-21T06:03:35.516Z,7928.00
2019-06-21T06:04:35.949Z,7796.00
2019-06-21T06:05:36.407Z,8176.00
2019-06-21T06:06:44.663Z,8428.00
2019-06-21T06:07:37.293Z,8760.00
2019-06-21T06:08:37.732Z,9228.00
2019-06-21T06:09:38.172Z,10068.00
2019-06-21T06:10:38.620Z,10204.00
2019-06-21T06:11:39.058Z,10592.00
2019-06-21T06:12:39.588Z,11516.00
2019-06-21T06:13:39.955Z,18464.00
2019-06-21T06:14:40.388Z,18752.00
2019-06-21T06:15:40.833Z,19392.00
2019-06-21T06:16:41.280Z,19712.00
2019-06-21T06:17:41.722Z,19712.00
2019-06-21T06:18:42.157Z,13068.00
2019-06-21T06:19:42.611Z,12824.00
2019-06-21T06:20:43.053Z,12592.00
2019-06-21T06:21:43.502Z,14664.00
2019-06-21T06:22:43.954Z,18240.00
2019-06-21T06:23:44.412Z,19456.00
2019-06-21T06:24:44.869Z,20448.00
2019-06-21T06:25:45.289Z,15872.00
2019-06-21T06:26:45.748Z,14064.00
2019-06-21T06:27:46.224Z,13776.00
2019-06-21T06:28:46.639Z,14816.00
2019-06-21T06:29:47.093Z,12384.00
2019-06-21T06:30:47.559Z,12252.00
2019-06-21T06:31:47.997Z,12916.00
2019-06-21T06:32:48.563Z,17440.00
2019-06-21T06:33:48.876Z,18048.00
2019-06-21T06:36:22.555Z,16288.00
2019-06-21T06:37:23.019Z,15936.00
2019-06-21T06:39:17.597Z,15464.00
2019-06-21T06:40:18.036Z,15208.00
2019-06-21T06:42:12.633Z,15656.00
2019-06-21T06:43:13.084Z,18784.00
2019-06-21T06:45:07.689Z,15340.00
2019-06-21T06:46:08.119Z,14680.00
2019-06-21T06:48:02.712Z,17408.00
2019-06-21T06:49:03.162Z,14288.00
2019-06-21T06:50:58.756Z,16832.00
2019-06-21T06:51:59.192Z,15396.00
2019-06-21T06:53:53.788Z,19424.00
2019-06-21T06:54:54.247Z,17024.00
2019-06-21T06:56:48.841Z,22464.00
2019-06-21T06:57:49.286Z,21248.00
2019-06-21T06:59:43.892Z,22976.00
2019-06-21T07:00:44.354Z,23392.00
2019-06-21T07:02:38.945Z,21824.00
2019-06-21T07:03:39.399Z,24288.00
2019-06-21T07:05:34.009Z,28096.00
2019-06-21T07:06:34.460Z,28736.00
2019-06-21T07:08:29.071Z,18976.00
2019-06-21T07:09:29.520Z,18112.00
2019-06-21T07:11:38.081Z,18528.00
2019-06-21T07:12:24.593Z,16256.00
2019-06-21T07:14:20.187Z,29536.00
2019-06-21T07:15:20.635Z,18944.00
2019-06-21T07:17:15.257Z,14600.00
2019-06-21T07:18:15.696Z,16960.00
2019-06-21T07:20:10.341Z,70688.00
2019-06-21T07:21:10.795Z,27136.00
2019-06-21T07:23:05.414Z,21792.00
2019-06-21T07:24:05.854Z,22624.00
2019-06-21T07:26:00.459Z,23424.00
2019-06-21T07:27:00.902Z,25632.00
2019-06-21T07:28:55.502Z,48352.00
2019-06-21T07:29:55.956Z,71264.00
2019-06-21T07:31:50.559Z,65216.00
2019-06-21T07:32:51.010Z,23744.00
2019-06-21T07:34:45.637Z,33920.00
2019-06-21T07:35:46.088Z,48288.00
2019-06-21T07:37:40.710Z,28608.00
2019-06-21T07:38:41.173Z,42624.00
2019-06-21T07:40:35.825Z,74912.00
2019-06-21T07:41:36.239Z,24832.00
2019-06-21T07:43:30.847Z,39872.00
2019-06-21T07:44:31.292Z,28640.00
2019-06-21T07:46:25.911Z,26304.00
2019-06-21T07:47:26.365Z,25472.00
2019-06-21T07:49:22.937Z,71296.00
2019-06-21T07:50:21.429Z,41632.00
2019-06-21T07:52:17.032Z,42080.00
2019-06-21T07:53:17.472Z,57376.00
2019-06-21T07:55:12.172Z,53248.00
2019-06-21T07:56:12.542Z,37184.00
2019-06-21T07:58:07.165Z,46048.00
2019-06-21T07:59:07.657Z,29184.00
2019-06-21T08:01:02.389Z,47040.00
2019-06-21T08:02:02.706Z,35840.00
2019-06-21T08:03:57.289Z,37120.00
2019-06-21T08:04:57.743Z,24928.00
2019-06-21T08:06:52.356Z,30912.00
2019-06-21T08:07:52.829Z,34272.00
2019-06-21T08:09:47.418Z,34048.00
2019-06-21T08:10:47.855Z,29632.00
2019-06-21T08:12:42.472Z,18240.00
2019-06-21T08:13:42.929Z,20160.00
2019-06-21T08:15:37.552Z,53760.00
2019-06-21T08:16:37.987Z,77376.00
2019-06-21T08:18:33.580Z,50880.00
2019-06-21T08:19:34.024Z,80288.00
2019-06-21T08:21:28.636Z,74912.00
2019-06-21T08:22:29.080Z,46432.00
2019-06-21T08:24:23.689Z,53312.00
2019-06-21T08:25:24.142Z,48032.00
2019-06-21T08:27:18.766Z,84096.00
2019-06-21T08:28:19.209Z,66624.00
2019-06-21T08:30:13.833Z,19968.00
2019-06-21T08:31:14.298Z,17888.00
2019-06-21T08:33:08.920Z,69536.00
2019-06-21T08:34:10.544Z,65216.00
2019-06-21T08:36:04.964Z,72992.00
2019-06-21T08:37:05.421Z,65568.00
2019-06-21T08:39:00.042Z,82528.00
2019-06-21T08:40:00.533Z,98432.00
2019-06-21T08:41:55.126Z,21632.00
2019-06-21T08:42:55.581Z,13500.00
2019-06-21T08:44:50.188Z,9384.00
2019-06-21T08:45:50.650Z,8964.00
2019-06-21T08:47:45.259Z,9200.00
2019-06-21T08:48:45.712Z,11748.00
2019-06-21T08:49:46.191Z,14844.00
2019-06-21T08:50:46.632Z,31968.00
2019-06-21T08:51:47.076Z,91136.00
2019-06-21T08:52:47.594Z,89280.00
2019-06-21T08:53:48.045Z,76384.00
2019-06-21T08:54:48.454Z,73504.00
2019-06-21T08:55:48.904Z,75520.00
2019-06-21T08:56:49.368Z,87616.00
2019-06-21T08:57:49.824Z,87488.00
2019-06-21T08:58:50.284Z,50592.00
2019-06-21T08:59:50.740Z,68448.00
2019-06-21T09:00:51.198Z,60928.00
2019-06-21T09:01:51.681Z,80800.00
2019-06-21T09:02:52.132Z,63776.00
2019-06-21T09:03:52.593Z,45344.00
2019-06-21T09:04:53.053Z,45440.00
2019-06-21T09:05:53.505Z,42304.00
2019-06-21T09:06:53.971Z,44544.00
2019-06-21T09:07:54.440Z,60576.00
2019-06-21T09:08:54.897Z,39968.00
2019-06-21T09:09:55.368Z,41088.00
2019-06-21T09:10:55.869Z,43776.00
2019-06-21T09:11:56.276Z,48832.00
2019-06-21T09:12:56.735Z,24672.00
2019-06-21T09:13:57.205Z,22176.00
2019-06-21T09:14:57.662Z,23328.00
2019-06-21T09:15:58.118Z,58848.00
2019-06-21T09:16:58.577Z,73856.00
2019-06-21T09:17:59.042Z,79616.00
2019-06-21T09:18:59.504Z,87872.00
2019-06-21T09:19:59.961Z,18272.00
2019-06-21T09:21:00.427Z,13652.00
2019-06-21T09:22:00.889Z,11796.00
2019-06-21T09:23:01.361Z,12036.00
2019-06-21T09:24:01.834Z,14332.00
2019-06-21T09:25:02.262Z,19232.00
2019-06-21T09:26:02.833Z,50368.00
2019-06-21T09:27:03.179Z,66304.00
2019-06-21T09:28:03.657Z,92608.00
2019-06-21T09:29:05.732Z,86624.00
2019-06-21T09:30:06.270Z,92832.00
2019-06-21T09:31:06.718Z,92928.00
2019-06-21T09:32:07.394Z,17696.00
2019-06-21T09:33:07.481Z,15336.00
2019-06-21T09:34:07.313Z,93664.00
2019-06-21T09:35:08.449Z,91072.00
2019-06-21T09:36:08.110Z,92544.00
2019-06-21T09:37:08.085Z,91264.00
2019-06-21T09:38:08.705Z,92512.00
2019-06-21T09:39:10.081Z,92544.00
2019-06-21T09:40:10.607Z,68704.00
2019-06-21T09:41:12.051Z,105856.00
2019-06-21T09:42:11.951Z,40320.00
2019-06-21T09:43:20.446Z,16144.00
2019-06-21T09:44:11.192Z,15984.00
2019-06-21T09:45:14.110Z,79136.00
2019-06-21T09:46:13.015Z,99520.00
2019-06-21T09:47:13.686Z,82176.00
2019-06-21T09:48:13.714Z,18368.00
2019-06-21T09:49:13.356Z,19584.00
2019-06-21T09:50:13.826Z,101056.00
2019-06-21T09:51:14.733Z,94976.00
2019-06-21T09:52:14.752Z,31680.00
2019-06-21T09:53:27.087Z,28832.00
2019-06-21T09:54:15.708Z,96864.00
2019-06-21T09:55:16.157Z,101280.00
2019-06-21T09:56:16.610Z,100384.00
2019-06-21T09:57:17.093Z,96416.00
2019-06-21T09:58:17.554Z,94752.00
2019-06-21T09:59:18.025Z,262140.00
2019-06-21T10:00:18.503Z,96576.00
2019-06-21T10:01:18.964Z,100608.00
2019-06-21T10:02:19.438Z,91136.00
2019-06-21T10:03:19.894Z,99616.00
2019-06-21T10:04:20.391Z,93312.00
2019-06-21T10:05:20.861Z,87296.00
2019-06-21T10:06:21.319Z,71904.00
2019-06-21T10:07:21.793Z,33536.00
2019-06-21T10:08:22.247Z,33024.00
2019-06-21T10:09:22.726Z,19552.00
2019-06-21T10:10:23.189Z,86240.00
2019-06-21T10:11:23.661Z,60384.00
2019-06-21T10:12:24.138Z,95808.00
2019-06-21T10:13:28.324Z,94720.00
2019-06-21T10:14:25.074Z,93920.00
2019-06-21T10:15:25.549Z,100416.00
2019-06-21T10:16:26.038Z,97280.00
2019-06-21T10:17:26.486Z,92128.00
2019-06-21T10:18:26.959Z,105824.00
2019-06-21T10:19:27.427Z,105568.00
2019-06-21T10:20:27.904Z,58112.00
2019-06-21T10:21:28.373Z,87968.00
2019-06-21T10:22:28.848Z,40160.00
2019-06-21T10:23:29.318Z,39808.00
2019-06-21T10:24:29.793Z,32768.00
2019-06-21T10:25:30.272Z,64512.00
2019-06-21T10:26:30.730Z,87872.00
2019-06-21T10:27:31.203Z,57440.00
2019-06-21T10:28:31.679Z,73344.00
2019-06-21T10:29:32.141Z,99680.00
2019-06-21T10:30:32.613Z,101472.00
2019-06-21T10:31:33.087Z,70656.00
2019-06-21T10:32:33.551Z,55520.00
2019-06-21T10:33:34.033Z,56608.00
2019-06-21T10:34:34.499Z,34688.00
2019-06-21T10:35:34.977Z,32832.00
2019-06-21T10:36:35.439Z,31872.00
2019-06-21T10:37:35.908Z,34432.00
2019-06-21T10:38:36.382Z,59232.00
2019-06-21T10:39:41.086Z,92992.00
2019-06-21T10:40:37.331Z,98176.00
2019-06-21T10:41:37.810Z,106464.00
2019-06-21T10:42:38.280Z,112192.00
2019-06-21T10:43:42.848Z,107008.00
2019-06-21T10:44:39.227Z,97664.00
2019-06-21T10:45:39.706Z,85472.00
2019-06-21T10:46:40.170Z,83936.00
2019-06-21T10:47:40.645Z,92000.00
2019-06-21T10:48:41.119Z,51392.00
2019-06-21T10:49:41.587Z,23136.00
2019-06-21T10:50:42.073Z,53280.00
2019-06-21T10:51:42.537Z,31136.00
2019-06-21T10:52:43.024Z,30240.00
2019-06-21T10:53:43.498Z,21568.00
2019-06-21T10:54:43.995Z,84064.00
2019-06-21T10:55:44.442Z,27904.00
2019-06-21T10:56:44.906Z,62368.00
2019-06-21T10:57:45.383Z,27648.00
2019-06-21T10:58:45.850Z,26624.00
2019-06-21T10:59:46.359Z,95616.00
2019-06-21T11:00:46.798Z,34720.00
2019-06-21T11:01:47.279Z,93888.00
2019-06-21T11:02:47.739Z,20576.00
2019-06-21T11:03:48.207Z,36192.00
2019-06-21T11:04:50.475Z,75840.00
2019-06-21T11:05:49.858Z,65056.00
2019-06-21T11:06:51.330Z,77760.00
2019-06-21T11:07:50.297Z,68032.00
2019-06-21T11:08:50.556Z,74400.00
2019-06-21T11:09:51.023Z,74016.00
2019-06-21T11:10:51.525Z,30912.00
2019-06-21T11:11:51.972Z,100992.00
2019-06-21T11:12:52.441Z,84032.00
2019-06-21T11:13:58.583Z,70880.00
2019-06-21T11:14:53.380Z,66816.00
2019-06-21T11:15:53.840Z,60032.00
2019-06-21T11:16:54.324Z,42528.00
2019-06-21T11:17:54.816Z,17536.00
2019-06-21T11:18:55.257Z,94272.00
2019-06-21T11:19:57.012Z,16788.00
2019-06-21T11:20:57.249Z,14804.00
2019-06-21T11:21:58.429Z,13916.00
2019-06-21T11:22:57.242Z,96672.00
2019-06-21T11:23:59.187Z,97024.00
2019-06-21T11:24:59.309Z,107520.00
2019-06-21T11:25:59.937Z,113856.00
2019-06-21T11:27:00.407Z,30144.00
2019-06-21T11:28:00.041Z,52288.00
2019-06-21T11:29:02.586Z,15752.00
2019-06-21T11:30:01.817Z,14652.00
2019-06-21T11:31:02.521Z,89728.00
2019-06-21T11:32:02.276Z,51232.00
2019-06-21T11:33:03.369Z,28288.00
2019-06-21T11:34:03.452Z,49472.00
2019-06-21T11:35:04.414Z,50784.00
2019-06-21T11:36:04.255Z,37440.00
2019-06-21T11:37:04.914Z,18816.00
2019-06-21T11:38:05.779Z,14808.00
2019-06-21T11:39:04.585Z,15400.00
2019-06-21T11:40:05.341Z,15256.00
2019-06-21T11:41:07.536Z,14264.00
2019-06-21T11:42:08.187Z,14088.00
2019-06-21T11:43:06.433Z,12800.00
2019-06-21T11:44:25.838Z,11864.00
2019-06-21T11:45:14.614Z,11356.00
2019-06-21T11:46:07.878Z,11036.00
2019-06-21T11:47:08.890Z,10956.00
2019-06-21T11:48:08.723Z,11200.00
2019-06-21T11:49:09.989Z,11528.00
2019-06-21T11:50:09.803Z,12724.00
2019-06-21T11:51:10.097Z,12672.00
2019-06-21T11:52:10.957Z,13868.00
2019-06-21T11:53:11.252Z,13120.00
2019-06-21T11:54:11.650Z,14716.00
2019-06-21T11:55:11.926Z,13340.00
2019-06-21T11:56:12.381Z,13412.00
2019-06-21T11:57:12.837Z,12020.00
2019-06-21T11:58:13.290Z,11240.00
2019-06-21T11:59:13.747Z,12804.00
2019-06-21T12:00:14.198Z,13744.00
2019-06-21T12:01:14.684Z,13116.00
2019-06-21T12:02:15.127Z,11992.00
2019-06-21T12:03:15.556Z,11616.00
2019-06-21T12:04:16.215Z,10404.00
2019-06-21T12:05:16.469Z,10400.00
2019-06-21T12:06:16.913Z,10392.00
2019-06-21T12:07:17.396Z,10888.00
2019-06-21T12:08:17.828Z,9816.00
2019-06-21T12:09:18.277Z,8704.00
2019-06-21T12:10:18.728Z,7440.00
2019-06-21T12:11:19.187Z,7120.00
2019-06-21T12:12:19.633Z,6684.00
2019-06-21T12:13:20.093Z,6600.00
2019-06-21T12:14:32.552Z,8376.00
2019-06-21T12:15:20.979Z,10672.00
2019-06-21T12:16:21.475Z,12728.00
2019-06-21T12:17:21.888Z,13040.00
2019-06-21T12:18:22.340Z,13888.00
2019-06-21T12:19:22.787Z,14592.00
2019-06-21T12:20:23.231Z,13532.00
2019-06-21T12:21:23.688Z,13220.00
2019-06-21T12:22:24.134Z,12492.00
2019-06-21T12:23:32.963Z,11200.00
2019-06-21T12:24:25.045Z,10884.00
2019-06-21T12:25:25.506Z,10380.00
2019-06-21T12:26:25.932Z,10056.00
2019-06-21T12:27:26.385Z,9048.00
2019-06-21T12:28:26.841Z,9128.00
2019-06-21T12:29:30.031Z,9244.00
2019-06-21T12:30:27.742Z,9096.00
2019-06-21T12:31:28.182Z,8400.00
2019-06-21T12:32:28.658Z,9136.00
2019-06-21T12:33:29.096Z,9560.00
2019-06-21T12:34:29.538Z,8740.00
2019-06-21T12:35:29.989Z,9584.00
2019-06-21T12:36:30.427Z,9344.00
2019-06-21T12:37:30.889Z,9224.00
2019-06-21T12:38:31.347Z,8356.00
2019-06-21T12:39:31.777Z,7560.00
2019-06-21T12:40:32.253Z,7048.00
2019-06-21T12:41:32.683Z,6632.00
2019-06-21T12:42:33.142Z,6348.00
2019-06-21T12:43:33.572Z,6156.00
2019-06-21T12:44:48.330Z,5980.00
2019-06-21T12:45:38.515Z,5792.00
2019-06-21T12:46:34.915Z,5704.00
2019-06-21T12:47:35.385Z,5780.00
2019-06-21T12:48:35.817Z,5772.00
2019-06-21T12:49:36.268Z,5768.00
2019-06-21T12:50:36.751Z,4504.00
2019-06-21T12:51:37.159Z,5656.00
2019-06-21T12:52:37.612Z,6224.00
2019-06-21T12:53:38.104Z,6596.00
2019-06-21T12:54:38.557Z,6548.00
2019-06-21T12:55:38.947Z,5860.00
2019-06-21T12:56:39.416Z,4520.00
2019-06-21T12:57:39.854Z,5912.00
2019-06-21T12:58:40.296Z,6456.00
2019-06-21T12:59:40.739Z,5844.00
2019-06-21T13:00:41.190Z,5860.00
2019-06-21T13:01:47.328Z,5884.00
2019-06-21T13:02:42.085Z,5768.00
2019-06-21T13:03:42.578Z,5676.00
2019-06-21T13:04:49.714Z,5764.00
2019-06-21T13:05:43.431Z,6596.00
2019-06-21T13:06:43.881Z,8412.00